Terminal Aerodrome Forecast
Issued by NWS Caribou, ME

Home | Current Version | Previous Version | Text Only | Print | Product List | Glossary On
Versions: 1 2 3 4 5 6 7 8 9 10 11 12 13
000
FTUS41 KCAR 302325
TAFBGR
TAF
KBGR 302325Z 3100/3124 33003KT P6SM SCT060 SCT150
     FM311500 25010G18KT P6SM SCT050=

USA.gov is the U.S. government's official web portal to all federal, state and local government web resources and services.